sensor_id;sensor_type;location;lat;lon;timestamp;temperature;humidity
23597;DHT22;40226;50.874;4.394;2022-12-11T00:01:21;2.30;99.90
23597;DHT22;40226;50.874;4.394;2022-12-11T00:03:47;2.20;99.90
23597;DHT22;40226;50.874;4.394;2022-12-11T00:06:15;2.20;99.90
23597;DHT22;40226;50.874;4.394;2022-12-11T00:08:41;2.20;99.90
23597;DHT22;40226;50.874;4.394;2022-12-11T00:11:08;2.20;99.90
23597;DHT22;40226;50.874;4.394;2022-12-11T00:13:34;2.20;99.90
23597;DHT22;40226;50.874;4.394;2022-12-11T00:16:00;2.20;99.90
23597;DHT22;40226;50.874;4.394;2022-12-11T00:18:25;2.20;99.90
23597;DHT22;40226;50.874;4.394;2022-12-11T00:20:51;2.20;99.90
23597;DHT22;40226;50.874;4.394;2022-12-11T00:23:17;2.20;99.90
23597;DHT22;40226;50.874;4.394;2022-12-11T00:25:44;2.10;99.90
23597;DHT22;40226;50.874;4.394;2022-12-11T00:28:11;2.10;99.90
23597;DHT22;40226;50.874;4.394;2022-12-11T00:30:43;2.30;99.90
23597;DHT22;40226;50.874;4.394;2022-12-11T00:33:09;2.30;99.90
23597;DHT22;40226;50.874;4.394;2022-12-11T00:35:40;2.30;99.90
23597;DHT22;40226;50.874;4.394;2022-12-11T00:38:06;2.20;99.90
23597;DHT22;40226;50.874;4.394;2022-12-11T00:40:33;2.20;99.90
23597;DHT22;40226;50.874;4.394;2022-12-11T00:42:59;2.30;99.90
23597;DHT22;40226;50.874;4.394;2022-12-11T00:45:25;2.30;99.90
23597;DHT22;40226;50.874;4.394;2022-12-11T00:47:51;2.30;99.90
23597;DHT22;40226;50.874;4.394;2022-12-11T00:50:16;2.30;99.90
23597;DHT22;40226;50.874;4.394;2022-12-11T00:52:42;2.30;99.90
23597;DHT22;40226;50.874;4.394;2022-12-11T00:55:07;2.20;99.90
23597;DHT22;40226;50.874;4.394;2022-12-11T00:57:33;2.20;99.90
23597;DHT22;40226;50.874;4.394;2022-12-11T00:59:59;2.30;99.90
23597;DHT22;40226;50.874;4.394;2022-12-11T01:02:24;2.30;99.90
23597;DHT22;40226;50.874;4.394;2022-12-11T01:04:50;2.30;99.90
23597;DHT22;40226;50.874;4.394;2022-12-11T01:07:15;2.30;99.90
23597;DHT22;40226;50.874;4.394;2022-12-11T01:09:41;2.20;99.90
23597;DHT22;40226;50.874;4.394;2022-12-11T01:12:25;2.30;99.90
23597;DHT22;40226;50.874;4.394;2022-12-11T01:14:53;2.20;99.90
23597;DHT22;40226;50.874;4.394;2022-12-11T01:17:18;2.30;99.90
23597;DHT22;40226;50.874;4.394;2022-12-11T01:19:44;2.40;99.90
23597;DHT22;40226;50.874;4.394;2022-12-11T01:22:10;2.50;99.90
23597;DHT22;40226;50.874;4.394;2022-12-11T01:24:36;2.30;99.90
23597;DHT22;40226;50.874;4.394;2022-12-11T01:27:11;2.30;99.90
23597;DHT22;40226;50.874;4.394;2022-12-11T01:29:39;2.30;99.90
23597;DHT22;40226;50.874;4.394;2022-12-11T01:32:04;2.30;99.90
23597;DHT22;40226;50.874;4.394;2022-12-11T01:34:31;2.30;99.90
23597;DHT22;40226;50.874;4.394;2022-12-11T01:36:57;2.30;99.90
23597;DHT22;40226;50.874;4.394;2022-12-11T01:39:23;2.20;99.90
23597;DHT22;40226;50.874;4.394;2022-12-11T01:41:49;2.30;99.90
23597;DHT22;40226;50.874;4.394;2022-12-11T01:46:41;2.40;99.90
23597;DHT22;40226;50.874;4.394;2022-12-11T01:49:10;2.40;99.90
23597;DHT22;40226;50.874;4.394;2022-12-11T01:52:02;2.40;99.90
23597;DHT22;40226;50.874;4.394;2022-12-11T01:54:30;2.30;99.90
23597;DHT22;40226;50.874;4.394;2022-12-11T01:57:01;2.30;99.90
23597;DHT22;40226;50.874;4.394;2022-12-11T01:59:29;2.30;99.90
23597;DHT22;40226;50.874;4.394;2022-12-11T02:02:16;2.30;99.90
23597;DHT22;40226;50.874;4.394;2022-12-11T02:04:43;2.30;99.90
23597;DHT22;40226;50.874;4.394;2022-12-11T02:07:10;2.50;99.90
23597;DHT22;40226;50.874;4.394;2022-12-11T02:09:37;2.50;99.90
23597;DHT22;40226;50.874;4.394;2022-12-11T02:15:18;2.50;99.90
23597;DHT22;40226;50.874;4.394;2022-12-11T02:17:53;2.40;99.90
23597;DHT22;40226;50.874;4.394;2022-12-11T02:20:39;2.40;99.90
23597;DHT22;40226;50.874;4.394;2022-12-11T02:28:51;2.60;99.90
23597;DHT22;40226;50.874;4.394;2022-12-11T02:31:35;2.40;99.90
23597;DHT22;40226;50.874;4.394;2022-12-11T02:34:17;2.50;99.90
23597;DHT22;40226;50.874;4.394;2022-12-11T02:36:50;2.40;99.90
23597;DHT22;40226;50.874;4.394;2022-12-11T02:39:17;2.40;99.90
23597;DHT22;40226;50.874;4.394;2022-12-11T02:41:48;2.50;99.90
23597;DHT22;40226;50.874;4.394;2022-12-11T02:44:16;2.40;99.90
23597;DHT22;40226;50.874;4.394;2022-12-11T02:46:43;2.50;99.90
23597;DHT22;40226;50.874;4.394;2022-12-11T02:49:11;2.50;99.90
23597;DHT22;40226;50.874;4.394;2022-12-11T02:51:39;2.50;99.90
23597;DHT22;40226;50.874;4.394;2022-12-11T02:54:09;2.50;99.90
23597;DHT22;40226;50.874;4.394;2022-12-11T02:56:44;2.50;99.90
23597;DHT22;40226;50.874;4.394;2022-12-11T02:59:18;2.40;99.90
23597;DHT22;40226;50.874;4.394;2022-12-11T03:01:45;2.50;99.90
23597;DHT22;40226;50.874;4.394;2022-12-11T03:04:11;2.60;99.90
23597;DHT22;40226;50.874;4.394;2022-12-11T03:06:44;2.60;99.90
23597;DHT22;40226;50.874;4.394;2022-12-11T03:09:12;2.60;99.90
23597;DHT22;40226;50.874;4.394;2022-12-11T03:11:37;2.60;99.90
23597;DHT22;40226;50.874;4.394;2022-12-11T03:14:03;2.60;99.90
23597;DHT22;40226;50.874;4.394;2022-12-11T03:22:37;2.40;99.90
23597;DHT22;40226;50.874;4.394;2022-12-11T03:25:09;2.30;99.90
23597;DHT22;40226;50.874;4.394;2022-12-11T03:27:41;2.40;99.90
23597;DHT22;40226;50.874;4.394;2022-12-11T03:30:13;2.40;99.90
23597;DHT22;40226;50.874;4.394;2022-12-11T03:33:04;2.50;99.90
23597;DHT22;40226;50.874;4.394;2022-12-11T03:35:41;2.30;99.90
23597;DHT22;40226;50.874;4.394;2022-12-11T03:38:20;2.40;99.90
23597;DHT22;40226;50.874;4.394;2022-12-11T03:40:49;2.40;99.90
23597;DHT22;40226;50.874;4.394;2022-12-11T03:43:16;2.40;99.90
23597;DHT22;40226;50.874;4.394;2022-12-11T03:45:43;2.40;99.90
23597;DHT22;40226;50.874;4.394;2022-12-11T03:48:12;2.30;99.90
23597;DHT22;40226;50.874;4.394;2022-12-11T03:50:40;2.40;99.90
23597;DHT22;40226;50.874;4.394;2022-12-11T03:53:06;2.60;99.90
23597;DHT22;40226;50.874;4.394;2022-12-11T03:55:32;2.60;99.90
23597;DHT22;40226;50.874;4.394;2022-12-11T03:58:00;2.40;99.90
23597;DHT22;40226;50.874;4.394;2022-12-11T04:00:26;2.40;99.90
23597;DHT22;40226;50.874;4.394;2022-12-11T04:02:52;2.40;99.90
23597;DHT22;40226;50.874;4.394;2022-12-11T04:05:36;2.70;99.90
23597;DHT22;40226;50.874;4.394;2022-12-11T04:08:02;2.90;99.90
23597;DHT22;40226;50.874;4.394;2022-12-11T04:10:27;3.00;99.90
23597;DHT22;40226;50.874;4.394;2022-12-11T04:12:53;2.80;99.90
23597;DHT22;40226;50.874;4.394;2022-12-11T04:15:18;2.50;99.90
23597;DHT22;40226;50.874;4.394;2022-12-11T04:17:44;2.50;99.90
23597;DHT22;40226;50.874;4.394;2022-12-11T04:20:28;2.70;99.90
23597;DHT22;40226;50.874;4.394;2022-12-11T04:23:14;2.70;99.90
23597;DHT22;40226;50.874;4.394;2022-12-11T04:26:07;2.80;99.90
23597;DHT22;40226;50.874;4.394;2022-12-11T04:28:34;2.80;99.90
23597;DHT22;40226;50.874;4.394;2022-12-11T04:30:59;2.70;99.90
23597;DHT22;40226;50.874;4.394;2022-12-11T04:33:25;2.70;99.90
23597;DHT22;40226;50.874;4.394;2022-12-11T04:35:51;2.70;99.90
23597;DHT22;40226;50.874;4.394;2022-12-11T04:38:16;2.60;99.90
23597;DHT22;40226;50.874;4.394;2022-12-11T04:40:42;2.50;99.90
23597;DHT22;40226;50.874;4.394;2022-12-11T04:43:08;2.40;99.90
23597;DHT22;40226;50.874;4.394;2022-12-11T04:45:33;2.50;99.90
23597;DHT22;40226;50.874;4.394;2022-12-11T04:47:59;2.50;99.90
23597;DHT22;40226;50.874;4.394;2022-12-11T04:50:25;2.50;99.90
23597;DHT22;40226;50.874;4.394;2022-12-11T04:52:54;2.40;99.90
23597;DHT22;40226;50.874;4.394;2022-12-11T04:55:20;2.40;99.90
23597;DHT22;40226;50.874;4.394;2022-12-11T04:57:45;2.40;99.90
23597;DHT22;40226;50.874;4.394;2022-12-11T05:00:12;2.50;99.90
23597;DHT22;40226;50.874;4.394;2022-12-11T05:02:39;2.40;99.90
23597;DHT22;40226;50.874;4.394;2022-12-11T05:05:06;2.40;99.90
23597;DHT22;40226;50.874;4.394;2022-12-11T05:07:35;2.50;99.90
23597;DHT22;40226;50.874;4.394;2022-12-11T05:10:01;2.60;99.90
23597;DHT22;40226;50.874;4.394;2022-12-11T05:12:27;2.60;99.90
23597;DHT22;40226;50.874;4.394;2022-12-11T05:14:53;2.40;99.90
23597;DHT22;40226;50.874;4.394;2022-12-11T05:17:20;2.40;99.90
23597;DHT22;40226;50.874;4.394;2022-12-11T05:19:52;2.30;99.90
23597;DHT22;40226;50.874;4.394;2022-12-11T05:22:18;2.30;99.90
23597;DHT22;40226;50.874;4.394;2022-12-11T05:24:44;2.30;99.90
23597;DHT22;40226;50.874;4.394;2022-12-11T05:27:10;2.30;99.90
23597;DHT22;40226;50.874;4.394;2022-12-11T05:29:36;2.40;99.90
23597;DHT22;40226;50.874;4.394;2022-12-11T05:32:02;2.30;99.90
23597;DHT22;40226;50.874;4.394;2022-12-11T05:34:28;2.30;99.90
23597;DHT22;40226;50.874;4.394;2022-12-11T05:36:54;2.40;99.90
23597;DHT22;40226;50.874;4.394;2022-12-11T05:39:19;2.40;99.90
23597;DHT22;40226;50.874;4.394;2022-12-11T05:41:45;2.30;99.90
23597;DHT22;40226;50.874;4.394;2022-12-11T05:44:11;2.40;99.90
23597;DHT22;40226;50.874;4.394;2022-12-11T05:46:38;2.50;99.90
23597;DHT22;40226;50.874;4.394;2022-12-11T05:49:04;2.50;99.90
23597;DHT22;40226;50.874;4.394;2022-12-11T05:51:31;2.50;99.90
23597;DHT22;40226;50.874;4.394;2022-12-11T05:53:59;2.40;99.90
23597;DHT22;40226;50.874;4.394;2022-12-11T05:56:27;2.40;99.90
23597;DHT22;40226;50.874;4.394;2022-12-11T05:58:54;2.50;99.90
23597;DHT22;40226;50.874;4.394;2022-12-11T06:01:24;2.50;99.90
23597;DHT22;40226;50.874;4.394;2022-12-11T06:03:50;2.50;99.90
23597;DHT22;40226;50.874;4.394;2022-12-11T06:06:16;2.50;99.90
23597;DHT22;40226;50.874;4.394;2022-12-11T06:08:43;2.40;99.90
23597;DHT22;40226;50.874;4.394;2022-12-11T06:11:10;2.40;99.90
23597;DHT22;40226;50.874;4.394;2022-12-11T06:13:36;2.50;99.90
23597;DHT22;40226;50.874;4.394;2022-12-11T06:16:03;2.50;99.90
23597;DHT22;40226;50.874;4.394;2022-12-11T06:18:29;2.40;99.90
23597;DHT22;40226;50.874;4.394;2022-12-11T06:20:54;2.30;99.90
23597;DHT22;40226;50.874;4.394;2022-12-11T06:23:20;2.40;99.90
23597;DHT22;40226;50.874;4.394;2022-12-11T06:25:46;2.30;99.90
23597;DHT22;40226;50.874;4.394;2022-12-11T06:28:12;2.20;99.90
23597;DHT22;40226;50.874;4.394;2022-12-11T06:30:39;2.20;99.90
23597;DHT22;40226;50.874;4.394;2022-12-11T06:33:05;2.10;99.90
23597;DHT22;40226;50.874;4.394;2022-12-11T06:35:31;2.10;99.90
23597;DHT22;40226;50.874;4.394;2022-12-11T06:37:58;2.10;99.90
23597;DHT22;40226;50.874;4.394;2022-12-11T06:40:23;2.10;99.90
23597;DHT22;40226;50.874;4.394;2022-12-11T06:42:49;2.10;99.90
23597;DHT22;40226;50.874;4.394;2022-12-11T06:45:14;2.00;99.90
23597;DHT22;40226;50.874;4.394;2022-12-11T06:47:40;2.00;99.90
23597;DHT22;40226;50.874;4.394;2022-12-11T06:50:06;2.10;99.90
23597;DHT22;40226;50.874;4.394;2022-12-11T06:52:31;2.00;99.90
23597;DHT22;40226;50.874;4.394;2022-12-11T06:54:57;2.10;99.90
23597;DHT22;40226;50.874;4.394;2022-12-11T06:57:23;2.20;99.90
23597;DHT22;40226;50.874;4.394;2022-12-11T06:59:49;2.20;99.90
23597;DHT22;40226;50.874;4.394;2022-12-11T07:02:16;2.20;99.90
23597;DHT22;40226;50.874;4.394;2022-12-11T07:04:42;2.20;99.90
23597;DHT22;40226;50.874;4.394;2022-12-11T07:07:09;2.40;99.90
23597;DHT22;40226;50.874;4.394;2022-12-11T07:09:36;2.40;99.90
23597;DHT22;40226;50.874;4.394;2022-12-11T07:12:02;2.40;99.90
23597;DHT22;40226;50.874;4.394;2022-12-11T07:14:29;2.30;99.90
23597;DHT22;40226;50.874;4.394;2022-12-11T07:16:55;2.30;99.90
23597;DHT22;40226;50.874;4.394;2022-12-11T07:19:21;2.40;99.90
23597;DHT22;40226;50.874;4.394;2022-12-11T07:21:47;2.30;99.90
23597;DHT22;40226;50.874;4.394;2022-12-11T07:24:13;2.30;99.90
23597;DHT22;40226;50.874;4.394;2022-12-11T07:26:38;2.30;99.90
23597;DHT22;40226;50.874;4.394;2022-12-11T07:29:05;2.20;99.90
23597;DHT22;40226;50.874;4.394;2022-12-11T07:31:33;2.40;99.90
23597;DHT22;40226;50.874;4.394;2022-12-11T07:34:04;2.30;99.90
23597;DHT22;40226;50.874;4.394;2022-12-11T07:36:31;2.20;99.90
23597;DHT22;40226;50.874;4.394;2022-12-11T07:38:58;2.10;99.90
23597;DHT22;40226;50.874;4.394;2022-12-11T07:41:24;2.10;99.90
23597;DHT22;40226;50.874;4.394;2022-12-11T07:43:52;2.10;99.90
23597;DHT22;40226;50.874;4.394;2022-12-11T07:46:22;2.20;99.90
23597;DHT22;40226;50.874;4.394;2022-12-11T07:48:48;2.30;99.90
23597;DHT22;40226;50.874;4.394;2022-12-11T07:51:19;2.10;99.90
23597;DHT22;40226;50.874;4.394;2022-12-11T07:53:48;2.20;99.90
23597;DHT22;40226;50.874;4.394;2022-12-11T07:56:15;2.20;99.90
23597;DHT22;40226;50.874;4.394;2022-12-11T07:58:42;2.10;99.90
23597;DHT22;40226;50.874;4.394;2022-12-11T08:03:41;2.20;99.90
23597;DHT22;40226;50.874;4.394;2022-12-11T08:06:07;2.20;99.90
23597;DHT22;40226;50.874;4.394;2022-12-11T08:08:33;2.20;99.90
23597;DHT22;40226;50.874;4.394;2022-12-11T08:11:05;2.20;99.90
23597;DHT22;40226;50.874;4.394;2022-12-11T08:13:31;2.30;99.90
23597;DHT22;40226;50.874;4.394;2022-12-11T08:15:57;2.50;99.90
23597;DHT22;40226;50.874;4.394;2022-12-11T08:18:23;2.50;99.90
23597;DHT22;40226;50.874;4.394;2022-12-11T08:20:48;2.70;99.90
23597;DHT22;40226;50.874;4.394;2022-12-11T08:23:14;2.60;99.90
23597;DHT22;40226;50.874;4.394;2022-12-11T08:25:40;2.60;99.90
23597;DHT22;40226;50.874;4.394;2022-12-11T08:28:05;2.70;99.90
23597;DHT22;40226;50.874;4.394;2022-12-11T08:30:31;2.70;99.90
23597;DHT22;40226;50.874;4.394;2022-12-11T08:32:58;2.70;99.90
23597;DHT22;40226;50.874;4.394;2022-12-11T08:35:24;2.70;99.90
23597;DHT22;40226;50.874;4.394;2022-12-11T08:37:50;2.60;99.90
23597;DHT22;40226;50.874;4.394;2022-12-11T08:40:16;2.80;99.90
23597;DHT22;40226;50.874;4.394;2022-12-11T08:42:42;3.00;99.90
23597;DHT22;40226;50.874;4.394;2022-12-11T08:45:08;3.00;99.90
23597;DHT22;40226;50.874;4.394;2022-12-11T08:47:34;3.10;99.90
23597;DHT22;40226;50.874;4.394;2022-12-11T08:50:00;3.10;99.90
23597;DHT22;40226;50.874;4.394;2022-12-11T08:52:26;3.20;99.90
23597;DHT22;40226;50.874;4.394;2022-12-11T08:54:55;3.10;99.90
23597;DHT22;40226;50.874;4.394;2022-12-11T08:57:20;3.00;99.90
23597;DHT22;40226;50.874;4.394;2022-12-11T08:59:46;2.80;99.90
23597;DHT22;40226;50.874;4.394;2022-12-11T09:02:12;2.80;99.90
23597;DHT22;40226;50.874;4.394;2022-12-11T09:04:37;2.80;99.90
23597;DHT22;40226;50.874;4.394;2022-12-11T09:07:06;2.60;99.90
23597;DHT22;40226;50.874;4.394;2022-12-11T09:09:32;2.50;99.90
23597;DHT22;40226;50.874;4.394;2022-12-11T09:11:57;2.60;99.90
23597;DHT22;40226;50.874;4.394;2022-12-11T09:14:26;2.60;99.90
23597;DHT22;40226;50.874;4.394;2022-12-11T09:16:51;2.60;99.90
23597;DHT22;40226;50.874;4.394;2022-12-11T09:19:17;2.90;99.90
23597;DHT22;40226;50.874;4.394;2022-12-11T09:21:58;3.00;99.90
23597;DHT22;40226;50.874;4.394;2022-12-11T09:24:48;2.90;99.90
23597;DHT22;40226;50.874;4.394;2022-12-11T09:30:23;3.20;99.90
23597;DHT22;40226;50.874;4.394;2022-12-11T09:32:49;3.10;99.90
23597;DHT22;40226;50.874;4.394;2022-12-11T09:35:15;2.90;99.90
23597;DHT22;40226;50.874;4.394;2022-12-11T09:37:42;3.10;99.90
23597;DHT22;40226;50.874;4.394;2022-12-11T09:40:10;2.80;99.90
23597;DHT22;40226;50.874;4.394;2022-12-11T09:42:53;2.90;99.90
23597;DHT22;40226;50.874;4.394;2022-12-11T09:45:21;3.10;99.90
23597;DHT22;40226;50.874;4.394;2022-12-11T09:47:52;3.40;99.90
23597;DHT22;40226;50.874;4.394;2022-12-11T09:50:26;3.40;99.90
23597;DHT22;40226;50.874;4.394;2022-12-11T09:53:01;3.60;99.90
23597;DHT22;40226;50.874;4.394;2022-12-11T10:08:05;3.10;99.90
23597;DHT22;40226;50.874;4.394;2022-12-11T10:10:44;3.00;99.90
23597;DHT22;40226;50.874;4.394;2022-12-11T10:13:36;3.00;99.90
23597;DHT22;40226;50.874;4.394;2022-12-11T10:18:37;3.10;99.90
23597;DHT22;40226;50.874;4.394;2022-12-11T10:21:05;3.00;99.90
23597;DHT22;40226;50.874;4.394;2022-12-11T10:23:37;3.40;99.90
23597;DHT22;40226;50.874;4.394;2022-12-11T10:26:17;3.40;99.90
23597;DHT22;40226;50.874;4.394;2022-12-11T10:28:44;3.40;99.90
23597;DHT22;40226;50.874;4.394;2022-12-11T10:31:33;3.30;99.90
23597;DHT22;40226;50.874;4.394;2022-12-11T10:34:03;3.10;99.90
23597;DHT22;40226;50.874;4.394;2022-12-11T10:36:37;3.20;99.90
23597;DHT22;40226;50.874;4.394;2022-12-11T10:39:15;3.20;99.90
23597;DHT22;40226;50.874;4.394;2022-12-11T10:41:46;3.30;99.90
23597;DHT22;40226;50.874;4.394;2022-12-11T10:44:26;3.50;99.90
23597;DHT22;40226;50.874;4.394;2022-12-11T10:47:14;3.30;99.90
23597;DHT22;40226;50.874;4.394;2022-12-11T10:49:50;3.10;99.90
23597;DHT22;40226;50.874;4.394;2022-12-11T10:52:50;2.80;99.90
23597;DHT22;40226;50.874;4.394;2022-12-11T10:58:06;2.80;99.90
23597;DHT22;40226;50.874;4.394;2022-12-11T11:00:44;2.90;99.90
23597;DHT22;40226;50.874;4.394;2022-12-11T11:03:24;3.00;99.90
23597;DHT22;40226;50.874;4.394;2022-12-11T11:06:05;3.00;99.90
23597;DHT22;40226;50.874;4.394;2022-12-11T11:08:42;3.00;99.90
23597;DHT22;40226;50.874;4.394;2022-12-11T11:14:27;3.40;99.90
23597;DHT22;40226;50.874;4.394;2022-12-11T11:16:55;3.60;99.90
23597;DHT22;40226;50.874;4.394;2022-12-11T11:19:29;3.80;99.90
23597;DHT22;40226;50.874;4.394;2022-12-11T11:21:57;4.10;97.00
23597;DHT22;40226;50.874;4.394;2022-12-11T11:24:40;4.30;90.70
23597;DHT22;40226;50.874;4.394;2022-12-11T11:27:30;4.70;72.40
23597;DHT22;40226;50.874;4.394;2022-12-11T11:30:01;4.80;61.90
23597;DHT22;40226;50.874;4.394;2022-12-11T11:32:36;4.60;57.80
23597;DHT22;40226;50.874;4.394;2022-12-11T11:37:40;4.10;71.70
23597;DHT22;40226;50.874;4.394;2022-12-11T11:45:36;4.30;61.20
23597;DHT22;40226;50.874;4.394;2022-12-11T11:48:12;4.00;54.30
23597;DHT22;40226;50.874;4.394;2022-12-11T11:50:45;3.80;73.90
23597;DHT22;40226;50.874;4.394;2022-12-11T11:53:31;4.00;82.40
23597;DHT22;40226;50.874;4.394;2022-12-11T11:56:19;4.40;63.00
23597;DHT22;40226;50.874;4.394;2022-12-11T12:01:21;4.70;38.80
23597;DHT22;40226;50.874;4.394;2022-12-11T12:03:47;4.80;26.00
23597;DHT22;40226;50.874;4.394;2022-12-11T12:06:26;4.80;24.20
23597;DHT22;40226;50.874;4.394;2022-12-11T12:14:31;4.60;40.80
23597;DHT22;40226;50.874;4.394;2022-12-11T12:17:16;4.80;29.80
23597;DHT22;40226;50.874;4.394;2022-12-11T12:25:09;3.90;59.50
23597;DHT22;40226;50.874;4.394;2022-12-11T12:27:53;3.70;68.60
23597;DHT22;40226;50.874;4.394;2022-12-11T12:30:20;3.60;76.70
23597;DHT22;40226;50.874;4.394;2022-12-11T12:33:02;3.40;84.50
23597;DHT22;40226;50.874;4.394;2022-12-11T12:49:50;3.40;98.80
23597;DHT22;40226;50.874;4.394;2022-12-11T12:52:36;3.30;99.90
23597;DHT22;40226;50.874;4.394;2022-12-11T12:55:24;3.40;99.90
23597;DHT22;40226;50.874;4.394;2022-12-11T12:57:53;3.30;99.90
23597;DHT22;40226;50.874;4.394;2022-12-11T13:02:56;3.30;99.90
23597;DHT22;40226;50.874;4.394;2022-12-11T13:05:24;3.40;99.90
23597;DHT22;40226;50.874;4.394;2022-12-11T13:08:02;3.60;99.90
23597;DHT22;40226;50.874;4.394;2022-12-11T13:10:40;3.70;99.90
23597;DHT22;40226;50.874;4.394;2022-12-11T13:13:28;3.80;99.90
23597;DHT22;40226;50.874;4.394;2022-12-11T13:16:20;3.80;99.90
23597;DHT22;40226;50.874;4.394;2022-12-11T13:18:47;3.60;99.90
23597;DHT22;40226;50.874;4.394;2022-12-11T13:21:35;3.60;99.90
23597;DHT22;40226;50.874;4.394;2022-12-11T13:26:47;3.40;99.90
23597;DHT22;40226;50.874;4.394;2022-12-11T13:29:35;3.60;99.90
23597;DHT22;40226;50.874;4.394;2022-12-11T13:34:40;3.50;99.90
23597;DHT22;40226;50.874;4.394;2022-12-11T13:39:53;3.40;99.90
23597;DHT22;40226;50.874;4.394;2022-12-11T13:42:50;3.60;99.90
23597;DHT22;40226;50.874;4.394;2022-12-11T13:48:00;3.50;99.90
23597;DHT22;40226;50.874;4.394;2022-12-11T13:50:32;3.70;99.90
23597;DHT22;40226;50.874;4.394;2022-12-11T13:53:00;3.40;99.90
23597;DHT22;40226;50.874;4.394;2022-12-11T13:55:29;3.10;99.90
23597;DHT22;40226;50.874;4.394;2022-12-11T13:58:17;3.20;99.90
23597;DHT22;40226;50.874;4.394;2022-12-11T14:00:56;3.40;99.90
23597;DHT22;40226;50.874;4.394;2022-12-11T14:03:25;3.40;99.90
23597;DHT22;40226;50.874;4.394;2022-12-11T14:05:51;3.60;99.90
23597;DHT22;40226;50.874;4.394;2022-12-11T14:08:22;3.60;99.90
23597;DHT22;40226;50.874;4.394;2022-12-11T14:10:53;3.60;99.90
23597;DHT22;40226;50.874;4.394;2022-12-11T14:13:22;3.90;99.90
23597;DHT22;40226;50.874;4.394;2022-12-11T14:15:51;4.10;99.90
23597;DHT22;40226;50.874;4.394;2022-12-11T14:18:21;4.30;99.90
23597;DHT22;40226;50.874;4.394;2022-12-11T14:20:54;4.40;99.90
23597;DHT22;40226;50.874;4.394;2022-12-11T14:23:23;4.40;99.90
23597;DHT22;40226;50.874;4.394;2022-12-11T14:26:00;4.40;99.90
23597;DHT22;40226;50.874;4.394;2022-12-11T14:28:29;4.10;99.90
23597;DHT22;40226;50.874;4.394;2022-12-11T14:31:01;4.10;99.90
23597;DHT22;40226;50.874;4.394;2022-12-11T14:33:31;4.30;99.90
23597;DHT22;40226;50.874;4.394;2022-12-11T14:35:58;4.10;99.90
23597;DHT22;40226;50.874;4.394;2022-12-11T14:38:34;4.50;99.90
23597;DHT22;40226;50.874;4.394;2022-12-11T14:41:20;4.40;99.90
23597;DHT22;40226;50.874;4.394;2022-12-11T14:43:50;4.50;99.90
23597;DHT22;40226;50.874;4.394;2022-12-11T14:46:25;4.50;99.90
23597;DHT22;40226;50.874;4.394;2022-12-11T14:49:04;4.10;99.90
23597;DHT22;40226;50.874;4.394;2022-12-11T14:51:36;3.90;99.90
23597;DHT22;40226;50.874;4.394;2022-12-11T14:54:05;3.70;99.90
23597;DHT22;40226;50.874;4.394;2022-12-11T14:56:44;3.50;99.90
23597;DHT22;40226;50.874;4.394;2022-12-11T14:59:17;3.40;99.90
23597;DHT22;40226;50.874;4.394;2022-12-11T15:02:16;3.40;99.90
23597;DHT22;40226;50.874;4.394;2022-12-11T15:04:57;3.40;99.90
23597;DHT22;40226;50.874;4.394;2022-12-11T15:07:24;3.40;99.90
23597;DHT22;40226;50.874;4.394;2022-12-11T15:09:50;3.50;99.90
23597;DHT22;40226;50.874;4.394;2022-12-11T15:12:17;3.30;99.90
23597;DHT22;40226;50.874;4.394;2022-12-11T15:14:53;3.30;99.90
23597;DHT22;40226;50.874;4.394;2022-12-11T15:17:20;3.20;99.90
23597;DHT22;40226;50.874;4.394;2022-12-11T15:19:49;3.30;99.90
23597;DHT22;40226;50.874;4.394;2022-12-11T15:22:19;3.10;99.90
23597;DHT22;40226;50.874;4.394;2022-12-11T15:24:50;3.00;99.90
23597;DHT22;40226;50.874;4.394;2022-12-11T15:27:33;3.20;99.90
23597;DHT22;40226;50.874;4.394;2022-12-11T15:30:13;3.00;99.90
23597;DHT22;40226;50.874;4.394;2022-12-11T15:32:39;3.10;99.90
23597;DHT22;40226;50.874;4.394;2022-12-11T15:35:27;3.00;99.90
23597;DHT22;40226;50.874;4.394;2022-12-11T15:37:54;2.90;99.90
23597;DHT22;40226;50.874;4.394;2022-12-11T15:40:21;2.90;99.90
23597;DHT22;40226;50.874;4.394;2022-12-11T15:42:46;2.90;99.90
23597;DHT22;40226;50.874;4.394;2022-12-11T15:45:22;2.90;99.90
23597;DHT22;40226;50.874;4.394;2022-12-11T15:47:49;2.90;99.90
23597;DHT22;40226;50.874;4.394;2022-12-11T15:52:41;3.10;99.90
23597;DHT22;40226;50.874;4.394;2022-12-11T15:55:07;3.20;99.90
23597;DHT22;40226;50.874;4.394;2022-12-11T15:57:33;3.10;99.90
23597;DHT22;40226;50.874;4.394;2022-12-11T16:00:00;3.00;99.90
23597;DHT22;40226;50.874;4.394;2022-12-11T16:02:27;3.10;99.90
23597;DHT22;40226;50.874;4.394;2022-12-11T16:04:53;3.00;99.90
23597;DHT22;40226;50.874;4.394;2022-12-11T16:07:21;3.10;99.90
23597;DHT22;40226;50.874;4.394;2022-12-11T16:09:48;3.20;99.90
23597;DHT22;40226;50.874;4.394;2022-12-11T16:12:28;3.00;99.90
23597;DHT22;40226;50.874;4.394;2022-12-11T16:14:56;3.00;99.90
23597;DHT22;40226;50.874;4.394;2022-12-11T16:17:22;3.10;99.90
23597;DHT22;40226;50.874;4.394;2022-12-11T16:19:49;3.10;99.90
23597;DHT22;40226;50.874;4.394;2022-12-11T16:22:15;3.10;99.90
23597;DHT22;40226;50.874;4.394;2022-12-11T16:24:53;3.20;99.90
23597;DHT22;40226;50.874;4.394;2022-12-11T16:27:23;3.20;99.90
23597;DHT22;40226;50.874;4.394;2022-12-11T16:29:50;3.30;99.90
23597;DHT22;40226;50.874;4.394;2022-12-11T16:32:16;3.30;99.90
23597;DHT22;40226;50.874;4.394;2022-12-11T16:34:45;3.40;99.90
23597;DHT22;40226;50.874;4.394;2022-12-11T16:37:31;3.20;99.90
23597;DHT22;40226;50.874;4.394;2022-12-11T16:39:56;3.30;99.90
23597;DHT22;40226;50.874;4.394;2022-12-11T16:42:22;3.10;99.90
23597;DHT22;40226;50.874;4.394;2022-12-11T16:44:48;3.20;99.90
23597;DHT22;40226;50.874;4.394;2022-12-11T16:47:15;3.10;99.90
23597;DHT22;40226;50.874;4.394;2022-12-11T16:49:47;3.20;99.90
23597;DHT22;40226;50.874;4.394;2022-12-11T16:52:13;3.30;99.90
23597;DHT22;40226;50.874;4.394;2022-12-11T16:54:39;3.20;99.90
23597;DHT22;40226;50.874;4.394;2022-12-11T16:57:05;3.20;99.90
23597;DHT22;40226;50.874;4.394;2022-12-11T16:59:30;3.30;99.90
23597;DHT22;40226;50.874;4.394;2022-12-11T17:01:56;3.40;99.90
23597;DHT22;40226;50.874;4.394;2022-12-11T17:04:21;3.50;99.90
23597;DHT22;40226;50.874;4.394;2022-12-11T17:06:47;3.40;99.90
23597;DHT22;40226;50.874;4.394;2022-12-11T17:09:13;3.20;99.90
23597;DHT22;40226;50.874;4.394;2022-12-11T17:11:38;3.20;99.90
23597;DHT22;40226;50.874;4.394;2022-12-11T17:14:05;3.10;99.90
23597;DHT22;40226;50.874;4.394;2022-12-11T17:16:48;3.10;99.90
23597;DHT22;40226;50.874;4.394;2022-12-11T17:19:15;3.20;99.90
23597;DHT22;40226;50.874;4.394;2022-12-11T17:21:41;3.20;99.90
23597;DHT22;40226;50.874;4.394;2022-12-11T17:24:29;3.10;99.90
23597;DHT22;40226;50.874;4.394;2022-12-11T17:27:02;3.10;99.90
23597;DHT22;40226;50.874;4.394;2022-12-11T17:29:27;3.30;99.90
23597;DHT22;40226;50.874;4.394;2022-12-11T17:31:53;3.40;99.90
23597;DHT22;40226;50.874;4.394;2022-12-11T17:34:19;3.20;99.90
23597;DHT22;40226;50.874;4.394;2022-12-11T17:36:47;3.10;99.90
23597;DHT22;40226;50.874;4.394;2022-12-11T17:39:12;3.10;99.90